Time;durP1;ratioP1;P1;durP2;ratioP2;P2;SDS_P1;SDS_P2;PMS_P1;PMS_P2;Temp;Humidity;BMP_temperature;BMP_pressure;BME280_temperature;BME280_humidity;BME280_pressure;Samples;Min_cycle;Max_cycle;Signal;HPM_P1;HPM_P2
2023/01/17 00:00:35;;;;;;;0.93;0.60;;;4.60;99.90;;;;;;4924799;29;20047;-76
2023/01/17 00:03:01;;;;;;;1.70;0.70;;;4.60;99.90;;;;;;4929218;29;20047;-76
2023/01/17 00:10:57;;;;;;;1.75;0.80;;;4.60;99.90;;;;;;4921107;29;20035;-77
2023/01/17 00:13:22;;;;;;;1.98;1.15;;;4.60;99.90;;;;;;4938927;29;20054;-77
2023/01/17 00:15:48;;;;;;;1.75;1.20;;;4.50;99.90;;;;;;4922262;29;20063;-76
2023/01/17 00:18:14;;;;;;;1.50;0.93;;;4.40;99.90;;;;;;4922306;29;20067;-76
2023/01/17 00:26:13;;;;;;;4.53;1.95;;;4.40;99.90;;;;;;4933215;29;20040;-76
2023/01/17 01:35:23;;;;;;;3.58;2.00;;;4.50;99.90;;;;;;4924356;29;20362;-76
2023/01/17 01:37:49;;;;;;;2.78;1.80;;;4.50;99.90;;;;;;4937118;29;20148;-76
2023/01/17 01:40:15;;;;;;;3.35;1.90;;;4.50;99.90;;;;;;4936661;29;20668;-76
2023/01/17 01:42:55;;;;;;;2.30;1.77;;;4.50;99.90;;;;;;4921075;29;20252;-76
2023/01/17 01:45:25;;;;;;;2.35;1.40;;;4.50;99.90;;;;;;4929800;29;20828;-76
2023/01/17 01:47:58;;;;;;;2.55;1.42;;;4.50;99.90;;;;;;4931769;29;20047;-76
2023/01/17 01:50:23;;;;;;;2.55;1.55;;;4.50;99.90;;;;;;4921001;29;20052;-76
2023/01/17 01:52:52;;;;;;;2.38;1.52;;;4.50;99.90;;;;;;4918884;29;20384;-75
2023/01/17 01:55:22;;;;;;;2.47;1.58;;;4.50;99.90;;;;;;4919221;29;20047;-76
2023/01/17 01:57:49;;;;;;;2.10;1.50;;;4.50;99.90;;;;;;4911861;29;20052;-76
2023/01/17 02:00:28;;;;;;;2.50;1.50;;;4.60;99.90;;;;;;4911620;29;20150;-75
2023/01/17 02:02:53;;;;;;;;;;;4.60;99.90;;;;;;4923267;29;20043;-75
2023/01/17 02:05:20;;;;;;;1.83;1.38;;;4.60;99.90;;;;;;4913369;29;19930;-75
2023/01/17 02:07:50;;;;;;;1.80;1.27;;;4.60;99.90;;;;;;4922930;29;20151;-76
2023/01/17 02:10:16;;;;;;;2.50;1.50;;;4.60;99.90;;;;;;4924321;29;20040;-74
2023/01/17 02:12:42;;;;;;;1.95;1.40;;;4.60;99.90;;;;;;4932145;29;20059;-73
2023/01/17 02:15:08;;;;;;;1.67;1.30;;;4.60;99.90;;;;;;4900032;29;20047;-76
2023/01/17 02:18:08;;;;;;;1.67;1.30;;;4.50;99.90;;;;;;4921273;29;20142;-76
2023/01/17 02:20:55;;;;;;;1.70;1.35;;;4.50;99.90;;;;;;4930272;29;20377;-76
2023/01/17 02:23:43;;;;;;;2.25;1.30;;;4.50;99.90;;;;;;4934246;29;20460;-76
2023/01/17 02:26:23;;;;;;;2.07;1.40;;;4.50;99.90;;;;;;4937198;29;20579;-76
2023/01/17 02:29:20;;;;;;;2.03;1.40;;;4.50;99.90;;;;;;4935658;29;20102;-76
2023/01/17 02:32:27;;;;;;;2.88;1.65;;;4.50;99.90;;;;;;4904117;29;20548;-76
2023/01/17 02:35:19;;;;;;;2.83;1.95;;;4.50;99.90;;;;;;4857441;29;20063;-76
2023/01/17 02:37:47;;;;;;;2.58;2.00;;;4.50;99.90;;;;;;4920087;29;20107;-76
2023/01/17 02:40:20;;;;;;;2.22;1.70;;;4.60;99.90;;;;;;4937610;29;20047;-76
2023/01/17 02:42:50;;;;;;;3.08;2.33;;;4.50;99.90;;;;;;4900448;29;20044;-76
2023/01/17 02:45:20;;;;;;;3.28;2.53;;;4.50;99.90;;;;;;4903420;29;20047;-76
2023/01/17 02:47:45;;;;;;;2.67;2.00;;;4.50;99.90;;;;;;4919476;29;20058;-76
2023/01/17 02:50:20;;;;;;;2.97;2.30;;;4.50;99.90;;;;;;4935788;29;20051;-76
2023/01/17 02:53:09;;;;;;;4.38;2.88;;;4.50;99.90;;;;;;4936405;29;20043;-76
2023/01/17 02:55:44;;;;;;;3.70;2.80;;;4.40;99.90;;;;;;4932802;29;20393;-76
2023/01/17 02:58:43;;;;;;;3.50;2.90;;;4.40;99.90;;;;;;4933829;29;20078;-76
2023/01/17 03:01:40;;;;;;;3.45;2.55;;;4.30;99.90;;;;;;4918734;29;20052;-76
2023/01/17 03:04:13;;;;;;;3.35;2.65;;;4.30;99.90;;;;;;4918084;29;20334;-76
2023/01/17 03:07:02;;;;;;;3.05;2.30;;;4.30;99.90;;;;;;4932205;29;20040;-75
2023/01/17 03:09:28;;;;;;;5.22;2.58;;;4.30;99.90;;;;;;4909667;29;20056;-76
2023/01/17 03:11:54;;;;;;;3.80;2.97;;;4.30;99.90;;;;;;4919019;29;20059;-76
2023/01/17 03:14:19;;;;;;;3.40;2.40;;;4.30;99.90;;;;;;4918716;29;20063;-75
2023/01/17 03:16:45;;;;;;;3.25;2.30;;;4.30;99.90;;;;;;4901528;29;20524;-75
2023/01/17 03:19:13;;;;;;;4.65;2.90;;;4.20;99.90;;;;;;4914621;29;20119;-76
2023/01/17 03:21:39;;;;;;;3.72;2.58;;;4.20;99.90;;;;;;4920080;29;20049;-76
2023/01/17 03:24:05;;;;;;;3.65;2.60;;;4.20;99.90;;;;;;4919279;29;20044;-75
2023/01/17 03:26:31;;;;;;;4.53;2.60;;;4.20;99.90;;;;;;4919574;29;20040;-76
2023/01/17 03:28:56;;;;;;;3.42;2.53;;;4.10;99.90;;;;;;4900875;29;20414;-76
2023/01/17 03:31:22;;;;;;;3.58;2.58;;;4.10;99.90;;;;;;4919271;29;20111;-76
2023/01/17 03:33:48;;;;;;;4.20;2.55;;;4.10;99.90;;;;;;4914022;29;20072;-76
2023/01/17 03:36:14;;;;;;;4.82;2.47;;;4.10;99.90;;;;;;4918580;29;20054;-76
2023/01/17 03:38:39;;;;;;;5.32;2.70;;;4.10;99.90;;;;;;4904033;29;20098;-76
2023/01/17 03:41:05;;;;;;;3.50;2.20;;;4.10;99.90;;;;;;4918598;29;20482;-76
2023/01/17 03:43:31;;;;;;;3.75;2.38;;;4.10;99.90;;;;;;4919235;29;20039;-76
2023/01/17 03:46:01;;;;;;;3.20;2.55;;;4.10;99.90;;;;;;4901176;29;20126;-76
2023/01/17 03:48:27;;;;;;;2.95;2.10;;;4.10;99.90;;;;;;4898194;29;20400;-76
2023/01/17 03:50:53;;;;;;;4.65;1.92;;;4.20;99.90;;;;;;4933533;29;20044;-75
2023/01/17 03:53:18;;;;;;;2.80;2.05;;;4.20;99.90;;;;;;4923591;29;20040;-76
2023/01/17 03:55:45;;;;;;;3.90;2.15;;;4.20;99.90;;;;;;4913349;29;20601;-76
2023/01/17 03:58:11;;;;;;;3.45;2.20;;;4.20;99.90;;;;;;4919849;29;20457;-76
2023/01/17 04:00:37;;;;;;;2.60;1.98;;;4.20;99.90;;;;;;4918888;29;20059;-76
2023/01/17 04:03:02;;;;;;;3.13;1.92;;;4.20;99.90;;;;;;4897079;29;20040;-76
2023/01/17 04:05:28;;;;;;;3.10;2.20;;;4.20;99.90;;;;;;4915779;29;20040;-76
2023/01/17 04:07:54;;;;;;;2.20;1.60;;;4.30;99.90;;;;;;4893252;29;20044;-75
2023/01/17 04:10:20;;;;;;;2.72;1.75;;;4.30;99.90;;;;;;4918757;29;20047;-77
2023/01/17 04:12:46;;;;;;;3.03;2.00;;;4.30;99.90;;;;;;4920403;29;20063;-76
2023/01/17 04:15:11;;;;;;;3.42;2.08;;;4.30;99.90;;;;;;4899936;29;20039;-76
2023/01/17 04:17:37;;;;;;;2.13;1.50;;;4.30;99.90;;;;;;4926504;29;20048;-76
2023/01/17 04:20:03;;;;;;;2.40;1.70;;;4.30;99.90;;;;;;4924762;29;20118;-76
2023/01/17 04:22:30;;;;;;;2.67;1.77;;;4.30;99.90;;;;;;4909565;29;20130;-77
2023/01/17 04:24:57;;;;;;;2.28;1.60;;;4.30;99.90;;;;;;4921563;29;20106;-77
2023/01/17 04:27:23;;;;;;;2.10;1.65;;;4.30;99.90;;;;;;4917393;29;20040;-77
2023/01/17 04:29:48;;;;;;;2.30;1.65;;;4.30;99.90;;;;;;4932531;29;20452;-77
2023/01/17 04:32:14;;;;;;;2.50;1.80;;;4.30;99.90;;;;;;4922440;29;20075;-76
2023/01/17 04:34:40;;;;;;;3.22;1.98;;;4.30;99.90;;;;;;4922635;29;20043;-76
2023/01/17 04:37:06;;;;;;;2.50;1.83;;;4.30;99.90;;;;;;4921727;29;20047;-76
2023/01/17 04:39:32;;;;;;;2.72;1.70;;;4.30;99.90;;;;;;4922049;29;20047;-76
2023/01/17 04:41:57;;;;;;;2.90;2.22;;;4.30;99.90;;;;;;4903918;29;20047;-76
2023/01/17 04:44:23;;;;;;;2.88;2.35;;;4.30;99.90;;;;;;4923530;29;20452;-75
2023/01/17 04:46:49;;;;;;;3.63;2.05;;;4.30;99.90;;;;;;4920615;29;20043;-76
2023/01/17 04:49:15;;;;;;;3.67;2.60;;;4.30;99.90;;;;;;4915751;29;20458;-75
2023/01/17 04:51:40;;;;;;;4.35;2.78;;;4.10;99.90;;;;;;4925281;29;20502;-75
2023/01/17 04:54:06;;;;;;;3.60;2.72;;;4.10;99.90;;;;;;4919967;29;20110;-75
2023/01/17 04:56:32;;;;;;;3.70;2.83;;;4.10;99.90;;;;;;4920031;29;20063;-75
2023/01/17 04:58:58;;;;;;;3.60;2.58;;;4.10;99.90;;;;;;4917874;29;20130;-75
2023/01/17 05:01:24;;;;;;;3.95;3.00;;;4.00;99.90;;;;;;4928933;29;20417;-75
2023/01/17 05:03:50;;;;;;;5.18;3.47;;;3.90;99.90;;;;;;4913908;29;20048;-75
2023/01/17 05:06:15;;;;;;;4.10;3.30;;;3.80;99.90;;;;;;4927895;29;20788;-76
2023/01/17 05:08:41;;;;;;;4.30;3.40;;;3.80;99.90;;;;;;4918113;29;20051;-76
2023/01/17 05:11:07;;;;;;;5.18;3.65;;;3.80;99.90;;;;;;4928917;29;20066;-76
2023/01/17 05:13:33;;;;;;;4.63;3.70;;;3.90;99.90;;;;;;4923289;29;20855;-76
2023/01/17 05:15:58;;;;;;;5.60;4.25;;;3.90;99.90;;;;;;4906110;29;20058;-75
2023/01/17 05:18:24;;;;;;;4.45;3.47;;;3.90;99.90;;;;;;4932633;29;20114;-76
2023/01/17 05:20:50;;;;;;;4.50;3.60;;;3.90;99.90;;;;;;4935569;29;20555;-76
2023/01/17 05:23:16;;;;;;;6.60;3.25;;;3.90;99.90;;;;;;4916236;29;20126;-75
2023/01/17 05:25:43;;;;;;;4.85;3.50;;;3.90;99.90;;;;;;4903109;29;20054;-76
2023/01/17 05:28:10;;;;;;;4.67;3.70;;;4.00;99.90;;;;;;4928960;29;20432;-75
2023/01/17 05:30:36;;;;;;;4.82;3.10;;;4.00;99.90;;;;;;4918542;29;21057;-75
2023/01/17 05:33:02;;;;;;;3.92;3.10;;;3.90;99.90;;;;;;4904427;29;20558;-76
2023/01/17 05:35:31;;;;;;;4.88;3.10;;;3.90;99.90;;;;;;4922918;29;20438;-75
2023/01/17 05:37:57;;;;;;;4.07;3.10;;;3.90;99.90;;;;;;4916710;29;20143;-75
2023/01/17 05:40:25;;;;;;;3.95;3.00;;;3.90;99.90;;;;;;4932323;29;20453;-75
2023/01/17 05:42:52;;;;;;;3.42;2.50;;;3.90;99.90;;;;;;4914363;29;20043;-75
2023/01/17 05:45:18;;;;;;;2.80;2.20;;;3.90;99.90;;;;;;4911908;29;20107;-75
2023/01/17 05:47:48;;;;;;;3.45;2.55;;;4.00;99.90;;;;;;4924618;29;20044;-75
2023/01/17 05:50:19;;;;;;;4.85;2.53;;;4.00;99.90;;;;;;4910868;29;20079;-75
2023/01/17 05:52:49;;;;;;;3.80;2.28;;;4.00;99.90;;;;;;4912843;29;20060;-75
2023/01/17 05:55:15;;;;;;;3.65;2.40;;;4.00;99.90;;;;;;4908577;29;20067;-76
2023/01/17 05:57:41;;;;;;;3.10;2.03;;;3.90;99.90;;;;;;4928253;29;20047;-75
2023/01/17 06:00:07;;;;;;;2.15;1.50;;;3.70;99.90;;;;;;4934653;29;20055;-76
2023/01/17 06:02:33;;;;;;;2.65;1.95;;;3.70;99.90;;;;;;4911559;29;20048;-76
2023/01/17 06:04:59;;;;;;;3.33;2.00;;;3.70;99.90;;;;;;4936097;28;20048;-76
2023/01/17 06:07:24;;;;;;;2.88;2.00;;;3.70;99.90;;;;;;4916788;29;20047;-76
2023/01/17 06:09:50;;;;;;;2.75;1.83;;;3.70;99.90;;;;;;4902998;29;20059;-76
2023/01/17 06:12:16;;;;;;;14.07;5.88;;;3.60;99.90;;;;;;4903399;29;20040;-74
2023/01/17 06:14:44;;;;;;;2.50;1.88;;;3.70;99.90;;;;;;4917620;29;20063;-73
2023/01/17 06:17:10;;;;;;;1.77;1.30;;;3.60;99.90;;;;;;4910571;29;20052;-74
2023/01/17 06:19:36;;;;;;;2.38;1.38;;;3.60;99.90;;;;;;4918539;29;20418;-74
2023/01/17 06:22:08;;;;;;;2.95;2.20;;;3.50;99.90;;;;;;4918246;29;20377;-74
2023/01/17 06:24:33;;;;;;;1.83;1.00;;;3.40;99.90;;;;;;4934350;29;20048;-74
2023/01/17 06:26:59;;;;;;;0.82;0.60;;;3.40;99.90;;;;;;4918300;29;20048;-73
2023/01/17 06:29:25;;;;;;;2.03;0.50;;;3.30;99.90;;;;;;4913863;29;20094;-73
2023/01/17 06:31:51;;;;;;;0.93;0.47;;;3.20;99.90;;;;;;4887087;29;20107;-73
2023/01/17 06:34:17;;;;;;;0.65;0.40;;;3.20;99.90;;;;;;4896122;29;20047;-73
2023/01/17 06:36:43;;;;;;;0.85;0.50;;;3.20;99.90;;;;;;4902609;29;20413;-73
2023/01/17 06:39:09;;;;;;;2.00;0.50;;;3.10;99.90;;;;;;4915294;29;20489;-73
2023/01/17 06:41:35;;;;;;;1.08;0.60;;;3.10;99.90;;;;;;4912658;29;20044;-73
2023/01/17 06:44:01;;;;;;;0.88;0.60;;;3.10;99.90;;;;;;4917862;29;20143;-73
2023/01/17 06:46:26;;;;;;;0.85;0.52;;;3.00;99.90;;;;;;4917198;29;20134;-73
2023/01/17 06:48:52;;;;;;;1.70;0.57;;;2.90;99.90;;;;;;4918104;29;20416;-73
2023/01/17 06:51:18;;;;;;;1.40;0.60;;;3.00;99.90;;;;;;4937206;28;20758;-73
2023/01/17 06:53:44;;;;;;;0.43;0.40;;;2.90;99.90;;;;;;4902003;29;20051;-73
2023/01/17 06:56:09;;;;;;;0.80;0.47;;;2.80;99.90;;;;;;4902592;29;20086;-73
2023/01/17 06:58:35;;;;;;;2.22;0.40;;;2.70;99.90;;;;;;4917352;29;20410;-73
2023/01/17 07:01:11;;;;;;;3.20;0.82;;;2.70;99.90;;;;;;4937367;29;20044;-74
2023/01/17 07:03:37;;;;;;;0.82;0.60;;;2.70;99.90;;;;;;4933822;29;20051;-74
2023/01/17 07:06:03;;;;;;;1.63;0.70;;;2.60;99.90;;;;;;4945530;28;20131;-74
2023/01/17 07:08:29;;;;;;;1.08;0.73;;;2.70;99.90;;;;;;4899430;29;20044;-74
2023/01/17 07:11:02;;;;;;;1.75;0.80;;;2.60;99.90;;;;;;4907875;29;20063;-74
2023/01/17 07:13:28;;;;;;;0.88;0.73;;;2.60;99.90;;;;;;4900595;29;20083;-74
2023/01/17 07:15:54;;;;;;;1.70;1.13;;;2.60;99.90;;;;;;4926842;29;20071;-73
2023/01/17 07:18:22;;;;;;;2.20;1.33;;;2.50;99.90;;;;;;4930866;29;20419;-75
2023/01/17 07:20:51;;;;;;;1.42;0.93;;;2.40;99.90;;;;;;4913718;29;20492;-74
2023/01/17 07:23:18;;;;;;;3.80;1.20;;;2.50;99.90;;;;;;4897378;29;20044;-74
2023/01/17 07:25:49;;;;;;;1.73;1.10;;;2.40;99.90;;;;;;4928119;29;20047;-75
2023/01/17 07:28:15;;;;;;;1.50;1.00;;;2.50;99.90;;;;;;4897924;29;20512;-74
2023/01/17 07:30:41;;;;;;;2.70;1.50;;;2.50;99.90;;;;;;4896698;29;20099;-74
2023/01/17 07:33:07;;;;;;;2.75;1.33;;;2.50;99.90;;;;;;4898475;29;20124;-74
2023/01/17 07:35:33;;;;;;;2.83;1.52;;;2.50;99.90;;;;;;4907757;29;20047;-74
2023/01/17 07:37:59;;;;;;;3.40;1.60;;;2.50;99.90;;;;;;4920621;29;20090;-74
2023/01/17 07:40:25;;;;;;;1.75;0.93;;;2.50;99.90;;;;;;4910897;29;20183;-74
2023/01/17 07:42:51;;;;;;;2.75;1.15;;;2.60;99.90;;;;;;4911809;29;20048;-75
2023/01/17 07:45:17;;;;;;;1.70;1.23;;;2.60;99.90;;;;;;4905233;29;20052;-75
2023/01/17 07:47:43;;;;;;;1.45;1.08;;;2.50;99.90;;;;;;4923733;29;20542;-75
2023/01/17 07:50:09;;;;;;;2.25;1.15;;;2.60;99.90;;;;;;4888467;29;20079;-75
2023/01/17 07:52:35;;;;;;;2.50;1.00;;;2.60;99.90;;;;;;4890650;29;20044;-73
2023/01/17 07:55:01;;;;;;;3.17;1.00;;;2.60;99.90;;;;;;4931782;29;20511;-73
2023/01/17 07:57:26;;;;;;;2.55;1.00;;;2.60;99.90;;;;;;4918062;29;20047;-73
2023/01/17 07:59:52;;;;;;;3.92;1.00;;;2.60;99.90;;;;;;4902281;29;20144;-73
2023/01/17 08:02:20;;;;;;;7.07;1.20;;;2.60;99.90;;;;;;4917955;29;20043;-73
2023/01/17 08:04:46;;;;;;;2.78;1.42;;;2.60;99.90;;;;;;4917140;29;20134;-73
2023/01/17 08:07:12;;;;;;;2.35;1.10;;;2.60;99.90;;;;;;4917255;29;20044;-73
2023/01/17 08:09:42;;;;;;;3.47;1.00;;;2.50;99.90;;;;;;4911409;29;20457;-72
2023/01/17 08:12:07;;;;;;;3.97;1.00;;;2.40;99.90;;;;;;4927278;29;20118;-72
2023/01/17 08:14:33;;;;;;;1.85;0.80;;;2.50;99.90;;;;;;4917580;29;20473;-72
2023/01/17 08:17:04;;;;;;;2.67;1.25;;;2.50;99.90;;;;;;4916868;29;20051;-72
2023/01/17 08:19:29;;;;;;;2.03;0.93;;;2.40;99.90;;;;;;4919972;29;20166;-73
2023/01/17 08:21:55;;;;;;;2.35;0.60;;;2.50;99.90;;;;;;4941680;29;20134;-73
2023/01/17 08:24:21;;;;;;;0.98;0.60;;;2.50;99.90;;;;;;4936479;29;20402;-74
2023/01/17 08:26:47;;;;;;;3.45;0.80;;;2.50;99.90;;;;;;4925956;29;20048;-74
2023/01/17 08:29:12;;;;;;;1.67;0.60;;;2.40;99.90;;;;;;4904896;29;20130;-75
2023/01/17 08:31:38;;;;;;;1.92;0.68;;;2.60;99.90;;;;;;4917691;29;20047;-73
2023/01/17 08:34:04;;;;;;;0.60;0.60;;;2.50;99.90;;;;;;4935825;29;20055;-73
2023/01/17 08:36:30;;;;;;;4.13;0.70;;;2.50;99.90;;;;;;4920422;29;20047;-73
2023/01/17 08:38:56;;;;;;;0.80;0.60;;;2.50;99.90;;;;;;4935575;29;20464;-74
2023/01/17 08:41:22;;;;;;;0.95;0.60;;;2.50;99.90;;;;;;4919939;29;20058;-72
2023/01/17 08:43:48;;;;;;;1.65;0.60;;;2.60;99.90;;;;;;4919678;29;20126;-73
2023/01/17 08:46:14;;;;;;;2.25;0.80;;;2.50;99.90;;;;;;4919587;29;20142;-74
2023/01/17 08:48:39;;;;;;;3.97;0.73;;;2.50;99.90;;;;;;4919411;29;20048;-74
2023/01/17 08:51:06;;;;;;;3.55;0.90;;;2.60;99.90;;;;;;4935333;29;20044;-74
2023/01/17 08:53:32;;;;;;;4.55;1.10;;;2.60;99.90;;;;;;4919862;29;20044;-74
2023/01/17 08:55:58;;;;;;;2.08;0.85;;;2.60;99.90;;;;;;4927104;29;20044;-75
2023/01/17 08:58:25;;;;;;;1.77;0.82;;;2.60;99.90;;;;;;4920485;29;20051;-75
2023/01/17 09:00:50;;;;;;;3.28;0.93;;;2.70;99.90;;;;;;4897152;29;20048;-74
2023/01/17 09:03:19;;;;;;;3.22;0.77;;;2.60;99.90;;;;;;4890761;29;20445;-74
2023/01/17 09:05:44;;;;;;;2.70;1.10;;;2.60;99.90;;;;;;4897778;29;20078;-74
2023/01/17 09:08:10;;;;;;;2.67;1.10;;;2.70;99.90;;;;;;4922237;29;20059;-73
2023/01/17 09:10:36;;;;;;;5.97;1.00;;;2.70;99.90;;;;;;4910629;29;20080;-74
2023/01/17 09:13:04;;;;;;;4.22;1.40;;;2.80;99.90;;;;;;4885382;29;20048;-74
2023/01/17 09:15:29;;;;;;;3.28;1.00;;;2.70;99.90;;;;;;4913641;29;20107;-74
2023/01/17 09:17:56;;;;;;;3.78;0.90;;;2.80;99.90;;;;;;4913333;29;20476;-73
2023/01/17 09:20:22;;;;;;;2.83;0.90;;;2.90;99.90;;;;;;4912751;29;20473;-74
2023/01/17 09:22:52;;;;;;;4.57;1.45;;;2.90;99.90;;;;;;4915667;29;20130;-75
2023/01/17 09:25:18;;;;;;;4.35;1.67;;;2.80;99.90;;;;;;4904192;29;20732;-73
2023/01/17 09:27:45;;;;;;;6.15;1.15;;;2.90;99.90;;;;;;4913805;29;20046;-74
2023/01/17 09:30:11;;;;;;;6.35;1.10;;;2.90;99.90;;;;;;4913624;29;20071;-74
2023/01/17 09:32:37;;;;;;;3.97;1.00;;;2.90;99.90;;;;;;4928709;29;20114;-74
2023/01/17 09:35:04;;;;;;;3.85;1.35;;;2.90;99.90;;;;;;4908493;29;20051;-73
2023/01/17 09:37:29;;;;;;;6.50;1.25;;;3.00;99.90;;;;;;4917976;29;20122;-73
2023/01/17 09:39:55;;;;;;;4.85;1.35;;;3.00;99.90;;;;;;4934760;29;20051;-74
2023/01/17 09:42:43;;;;;;;4.35;1.20;;;3.00;99.90;;;;;;4899902;29;20044;-75
2023/01/17 09:45:13;;;;;;;8.25;1.33;;;3.10;99.90;;;;;;4912999;29;20122;-74
2023/01/17 09:47:52;;;;;;;5.10;1.20;;;3.10;99.90;;;;;;4931818;29;20043;-73
2023/01/17 09:50:33;;;;;;;4.75;1.40;;;3.20;99.90;;;;;;4920256;29;20090;-74
2023/01/17 09:53:01;;;;;;;7.20;1.45;;;3.20;99.90;;;;;;4935686;29;20048;-74
2023/01/17 09:55:40;;;;;;;7.95;2.03;;;3.20;99.90;;;;;;4918799;29;20059;-74
2023/01/17 09:58:10;;;;;;;6.40;1.10;;;3.20;99.90;;;;;;4912433;29;20069;-74
2023/01/17 10:00:49;;;;;;;6.63;1.58;;;3.20;99.90;;;;;;4918969;29;20107;-74
2023/01/17 10:03:34;;;;;;;4.22;0.93;;;3.20;99.90;;;;;;4935117;29;20511;-74
2023/01/17 10:06:28;;;;;;;5.18;1.10;;;3.20;99.90;;;;;;4925929;29;20071;-75
2023/01/17 10:09:24;;;;;;;8.05;1.27;;;3.30;99.90;;;;;;4934642;29;20063;-75
2023/01/17 10:11:56;;;;;;;14.35;1.50;;;3.30;99.90;;;;;;4928900;29;20058;-75
2023/01/17 10:14:38;;;;;;;11.95;1.60;;;3.30;99.90;;;;;;4933582;29;20055;-75
2023/01/17 10:17:15;;;;;;;7.30;1.40;;;3.40;99.90;;;;;;4933839;29;20051;-75
2023/01/17 10:20:13;;;;;;;3.80;1.35;;;3.60;99.90;;;;;;4912427;29;20058;-75
2023/01/17 10:23:13;;;;;;;6.22;1.42;;;3.80;99.90;;;;;;4935283;29;20078;-75
2023/01/17 10:25:51;;;;;;;7.32;1.40;;;4.10;99.90;;;;;;4939247;29;20040;-75
2023/01/17 10:28:36;;;;;;;12.75;1.50;;;4.20;99.90;;;;;;4921484;29;20048;-74
2023/01/17 10:31:07;;;;;;;6.18;1.15;;;4.10;99.90;;;;;;4917960;29;20114;-75
2023/01/17 10:33:54;;;;;;;3.45;1.05;;;4.30;99.90;;;;;;4902908;29;20039;-74
2023/01/17 10:36:28;;;;;;;4.85;1.05;;;4.40;99.90;;;;;;4915864;29;20052;-75
2023/01/17 10:39:01;;;;;;;5.07;1.50;;;4.50;99.90;;;;;;4905646;29;20054;-75
2023/01/17 10:41:29;;;;;;;7.13;1.60;;;4.70;99.90;;;;;;4918299;29;20040;-74
2023/01/17 10:44:01;;;;;;;8.77;1.85;;;4.50;99.90;;;;;;4903608;29;20859;-75
2023/01/17 10:46:54;;;;;;;5.40;1.30;;;4.60;99.90;;;;;;4933959;29;20043;-73
2023/01/17 10:49:23;;;;;;;4.90;1.25;;;4.60;99.90;;;;;;4924793;29;20043;-73
2023/01/17 10:52:15;;;;;;;7.38;1.40;;;4.50;99.90;;;;;;4902019;29;20047;-73
2023/01/17 10:54:55;;;;;;;4.85;1.52;;;4.80;99.90;;;;;;4930431;29;20054;-73
2023/01/17 10:57:25;;;;;;;4.28;1.20;;;4.90;99.90;;;;;;4914742;29;20051;-73
2023/01/17 10:59:51;;;;;;;6.78;1.73;;;5.10;99.90;;;;;;4913123;29;20063;-72
2023/01/17 11:02:31;;;;;;;4.00;1.35;;;5.30;99.90;;;;;;4911417;29;20054;-73
2023/01/17 11:04:57;;;;;;;3.15;0.95;;;5.20;99.90;;;;;;4909041;29;20039;-73
2023/01/17 11:07:25;;;;;;;6.55;1.35;;;6.20;99.90;;;;;;4910504;29;20054;-74
2023/01/17 11:09:52;;;;;;;8.97;1.67;;;8.10;99.90;;;;;;4912316;29;20086;-73
2023/01/17 11:12:19;;;;;;;8.25;1.40;;;8.70;96.20;;;;;;4901997;29;20130;-74
2023/01/17 11:15:16;;;;;;;6.45;1.75;;;7.90;98.50;;;;;;4932686;29;20075;-74
2023/01/17 11:17:59;;;;;;;5.38;1.10;;;9.20;95.60;;;;;;4915728;29;20051;-74
2023/01/17 11:20:41;;;;;;;5.47;1.45;;;9.50;90.40;;;;;;4900876;29;20055;-74
2023/01/17 11:23:14;;;;;;;7.43;1.00;;;10.70;84.40;;;;;;4924927;29;20056;-75
2023/01/17 11:25:47;;;;;;;4.82;1.05;;;10.70;83.80;;;;;;4925419;29;20050;-75
2023/01/17 11:28:24;;;;;;;25.48;2.38;;;10.20;78.30;;;;;;4923884;29;20047;-74
2023/01/17 11:30:52;;;;;;;6.05;1.23;;;10.10;82.30;;;;;;4895713;29;20068;-75
2023/01/17 11:33:45;;;;;;;7.15;1.20;;;10.60;75.10;;;;;;4930707;29;20043;-75
2023/01/17 11:36:28;;;;;;;3.28;1.00;;;11.50;70.10;;;;;;4931816;29;20072;-75
2023/01/17 11:39:26;;;;;;;2.60;0.82;;;11.20;72.00;;;;;;4924338;29;20388;-74
2023/01/17 11:41:52;;;;;;;8.00;1.20;;;10.60;74.60;;;;;;4930269;29;20044;-74
2023/01/17 11:44:31;;;;;;;7.78;1.10;;;10.30;73.20;;;;;;4909340;29;20032;-74
2023/01/17 11:47:18;;;;;;;3.75;1.10;;;10.10;72.10;;;;;;4933246;29;20388;-75
2023/01/17 11:49:47;;;;;;;3.83;1.50;;;10.30;72.40;;;;;;4937069;29;20071;-74
2023/01/17 11:52:31;;;;;;;6.32;1.40;;;10.10;70.30;;;;;;4904248;29;20047;-75
2023/01/17 11:54:57;;;;;;;5.82;1.30;;;8.80;77.80;;;;;;4939224;29;20056;-75
2023/01/17 11:57:24;;;;;;;5.18;1.05;;;8.70;83.40;;;;;;4916518;29;20059;-75
2023/01/17 12:00:03;;;;;;;3.45;0.93;;;8.20;90.10;;;;;;4923424;29;20047;-75
2023/01/17 12:03:04;;;;;;;7.70;1.40;;;9.20;83.40;;;;;;4925256;29;20054;-74
2023/01/17 12:05:45;;;;;;;5.32;1.00;;;10.50;73.00;;;;;;4923148;29;20051;-73
2023/01/17 12:08:26;;;;;;;7.07;1.40;;;10.40;71.40;;;;;;4933044;29;20082;-72
2023/01/17 12:11:27;;;;;;;6.93;1.45;;;10.50;67.60;;;;;;4936270;29;20058;-73
2023/01/17 12:14:02;;;;;;;4.10;1.20;;;10.90;66.00;;;;;;4917748;29;20055;-74
2023/01/17 12:16:44;;;;;;;7.00;1.42;;;10.70;67.00;;;;;;4926430;29;20130;-73
2023/01/17 12:20:03;;;;;;;9.85;1.13;;;9.20;71.90;;;;;;4933154;29;20134;-73
2023/01/17 12:22:33;;;;;;;8.60;1.52;;;7.40;86.50;;;;;;4890412;29;20049;-72
2023/01/17 12:25:05;;;;;;;7.88;1.42;;;6.50;93.40;;;;;;4918487;29;20048;-74
2023/01/17 12:27:53;;;;;;;6.47;2.00;;;6.80;94.90;;;;;;4915663;29;20048;-74
2023/01/17 12:30:31;;;;;;;5.43;1.60;;;6.80;95.50;;;;;;4954862;29;20066;-73
2023/01/17 12:33:12;;;;;;;5.28;1.25;;;6.90;94.90;;;;;;4938706;29;20079;-74
2023/01/17 12:35:49;;;;;;;5.72;1.30;;;7.10;94.20;;;;;;4946916;28;20044;-75
2023/01/17 12:38:18;;;;;;;8.02;1.80;;;6.50;96.50;;;;;;4933256;29;20051;-74
2023/01/17 12:40:59;;;;;;;5.13;1.45;;;6.90;95.10;;;;;;4920806;29;20059;-75
2023/01/17 12:43:40;;;;;;;6.55;1.60;;;7.30;93.80;;;;;;4905647;29;20039;-75
2023/01/17 12:46:12;;;;;;;7.10;1.40;;;8.00;93.90;;;;;;4936028;29;20044;-75
2023/01/17 12:48:38;;;;;;;6.85;1.45;;;9.60;83.80;;;;;;4924156;29;20719;-76
2023/01/17 12:51:15;;;;;;;6.85;1.45;;;10.60;72.20;;;;;;4924000;29;20063;-75
2023/01/17 12:54:01;;;;;;;5.50;1.38;;;10.70;69.60;;;;;;4937481;29;20055;-75
2023/01/17 12:56:47;;;;;;;5.35;1.25;;;9.90;70.30;;;;;;4921985;29;20130;-74
2023/01/17 12:59:33;;;;;;;5.72;1.60;;;8.30;78.80;;;;;;4937236;29;20047;-75
2023/01/17 13:01:59;;;;;;;5.18;1.55;;;7.90;82.40;;;;;;4905929;29;20044;-74
2023/01/17 13:04:40;;;;;;;6.95;1.60;;;6.70;91.20;;;;;;4917082;29;20537;-73
2023/01/17 13:07:12;;;;;;;6.18;1.80;;;6.60;93.20;;;;;;4925600;29;20052;-73
2023/01/17 13:09:47;;;;;;;3.83;0.90;;;6.10;96.00;;;;;;4926198;29;20048;-73
2023/01/17 13:12:15;;;;;;;5.15;1.20;;;6.30;96.00;;;;;;4913395;29;20170;-73
2023/01/17 13:14:40;;;;;;;4.30;1.27;;;6.10;97.50;;;;;;4917482;29;20055;-73
2023/01/17 13:17:21;;;;;;;4.53;1.90;;;7.00;95.10;;;;;;4893690;29;20276;-73
2023/01/17 13:19:49;;;;;;;8.65;4.13;;;7.10;94.00;;;;;;4933749;29;20342;-74
2023/01/17 13:22:16;;;;;;;7.40;6.50;;;6.60;95.10;;;;;;4921166;29;20573;-72
2023/01/17 13:25:22;;;;;;;4.00;1.20;;;6.20;96.00;;;;;;4927559;29;20047;-73
2023/01/17 13:27:56;;;;;;;3.83;1.02;;;6.00;96.70;;;;;;4913789;29;20043;-73
2023/01/17 13:30:54;;;;;;;173.82;163.50;;;5.90;96.60;;;;;;4933993;29;20052;-73
2023/01/17 13:33:37;;;;;;;5.33;1.40;;;6.30;95.90;;;;;;4935295;29;20147;-73
2023/01/17 13:36:24;;;;;;;8.80;1.70;;;5.90;96.20;;;;;;4935356;29;20138;-73
2023/01/17 13:38:54;;;;;;;1999.90;999.90;;;5.80;97.20;;;;;;4932097;29;20353;-74
2023/01/17 13:41:32;;;;;;;12.23;10.13;;;6.90;95.00;;;;;;4929159;29;20492;-73
2023/01/17 13:47:03;;;;;;;10.52;9.70;;;5.80;96.00;;;;;;4922369;29;20048;-74
2023/01/17 13:49:29;;;;;;;7.43;1.88;;;5.60;99.50;;;;;;4935218;29;20047;-74
2023/01/17 13:52:10;;;;;;;4.53;1.50;;;5.90;94.90;;;;;;4958991;28;20047;-74
2023/01/17 13:54:49;;;;;;;5.72;1.33;;;5.20;98.30;;;;;;4932779;29;20087;-74
2023/01/17 13:57:28;;;;;;;5.30;1.77;;;5.30;98.00;;;;;;4926871;29;20039;-74
2023/01/17 14:00:15;;;;;;;5.65;1.40;;;5.40;97.60;;;;;;4932842;29;20058;-74
2023/01/17 14:02:41;;;;;;;1999.90;999.90;;;5.00;98.10;;;;;;4934496;29;20106;-74
2023/01/17 14:05:20;;;;;;;200.50;188.63;;;5.30;98.70;;;;;;4903331;29;20071;-74
2023/01/17 14:07:55;;;;;;;6.25;2.50;;;5.80;95.40;;;;;;4935996;29;20043;-75
2023/01/17 14:10:40;;;;;;;3.60;1.30;;;5.70;96.20;;;;;;4901649;29;20079;-74
2023/01/17 14:13:37;;;;;;;7.50;1.83;;;5.90;94.30;;;;;;4921799;29;20047;-74
2023/01/17 14:16:21;;;;;;;9.25;4.30;;;5.80;94.70;;;;;;4921771;29;20055;-74
2023/01/17 14:18:47;;;;;;;1999.90;999.90;;;5.50;96.70;;;;;;4926871;29;20058;-74
2023/01/17 14:21:22;;;;;;;1999.90;999.90;;;5.40;96.60;;;;;;4918444;29;20377;-74
2023/01/17 14:24:03;;;;;;;4.07;3.50;;;5.40;96.70;;;;;;4918828;29;20036;-75
2023/01/17 14:26:41;;;;;;;4.68;2.08;;;5.20;97.10;;;;;;4904163;29;20635;-74
2023/01/17 14:29:57;;;;;;;13.90;12.15;;;5.20;98.10;;;;;;4928948;29;20072;-74
2023/01/17 14:33:01;;;;;;;10.60;9.32;;;5.20;98.30;;;;;;4879563;29;20144;-75
2023/01/17 14:35:48;;;;;;;4.88;1.45;;;5.60;98.00;;;;;;4872062;29;20052;-73
2023/01/17 14:38:27;;;;;;;6.05;1.80;;;5.00;97.50;;;;;;4910282;29;20096;-73
2023/01/17 14:41:00;;;;;;;8.70;2.13;;;5.20;97.30;;;;;;4918254;29;20528;-75